| time (UTC) | temp F | wind direction | speed knots | gust knots | rain 1hr in | rain 24hr in | rain mn in | humidity % | barometer mb |
| 20260906113106 | 0 | 0.0 | 0.0 | 0.00 | 0.02 | 0.00 | 1012.5 | ||
| 20260906111559 | 0 | 0.0 | 0.0 | 0.00 | 0.02 | 0.00 | 1012.5 | ||
| 20260906104604 | 0 | 0.0 | 0.0 | 0.00 | 0.02 | 0.00 | 1012.4 | ||
| 20260906103105 | 0 | 0.0 | 0.0 | 0.00 | 0.02 | 0.00 | 1012.3 | ||
| 20260906101608 | 0 | 0.0 | 0.0 | 0.00 | 0.02 | 0.00 | 1012.4 | ||
| 20260906100058 | 0 | 0.0 | 0.0 | 0.00 | 0.02 | 0.00 | 1012.4 | ||
| 20260906094610 | 0 | 0.0 | 0.0 | 0.00 | 0.02 | 0.00 | 1012.4 | ||
| 20260906093112 | 0 | 0.0 | 0.0 | 0.00 | 0.02 | 0.00 | 1012.4 | ||
| 20260906091600 | 0 | 0.0 | 0.0 | 0.00 | 0.02 | 0.00 | 1012.4 | ||
| 20260906090138 | 0 | 0.0 | 0.0 | 0.00 | 0.02 | 0.00 | 1012.2 | ||
| 20260906084620 | 0 | 0.0 | 0.0 | 0.00 | 0.02 | 0.00 | 1012.1 | ||
| 20260906083100 | 0 | 0.0 | 0.0 | 0.00 | 0.02 | 0.00 | 1012.0 | ||
| 20260906081604 | 0 | 0.0 | 0.0 | 0.00 | 0.02 | 0.00 | 1012.0 | ||
| 20260906080110 | 0 | 0.0 | 0.0 | 0.00 | 0.02 | 0.00 | 1012.0 | ||
| 20260906074604 | 0 | 0.0 | 0.0 | 0.00 | 0.02 | 0.00 | 1011.9 | ||
| 20260906073059 | 0 | 0.0 | 0.0 | 0.00 | 0.02 | 0.00 | 1011.9 | ||
| 20260906071602 | 0 | 0.0 | 0.0 | 0.00 | 0.02 | 0.00 | 1012.0 | ||
| 20260906070103 | 0 | 0.0 | 0.0 | 0.00 | 0.02 | 0.00 | 1012.0 | ||
| 20260906064556 | 0 | 0.0 | 0.0 | 0.00 | 0.02 | 0.00 | 1012.2 | ||
| 20260906063059 | 0 | 0.0 | 0.0 | 0.00 | 0.02 | 0.00 | 1012.1 | ||
| 20260906061607 | 0 | 0.0 | 0.0 | 0.00 | 0.02 | 0.00 | 1012.3 | ||
| 20260906060106 | 0 | 0.0 | 0.0 | 0.00 | 0.02 | 0.00 | 1012.3 | ||
| 20260906054607 | 0 | 0.0 | 0.0 | 0.00 | 0.02 | 0.00 | 1012.6 | ||
| 20260906053118 | 0 | 0.0 | 0.0 | 0.00 | 0.02 | 0.00 | 1012.6 | ||
| 20260906051601 | 0 | 0.0 | 0.0 | 0.00 | 0.02 | 0.00 | 1012.9 | ||
| 20260906050104 | 0 | 0.0 | 0.0 | 0.00 | 0.02 | 0.00 | 1012.8 | ||
| 20260906044606 | 0 | 0.0 | 0.0 | 0.00 | 0.02 | 0.00 | 1012.9 | ||
| 20260906043102 | 0 | 0.0 | 0.0 | 0.00 | 0.02 | 0.00 | 1012.8 | ||
| 20260906041604 | 0 | 0.0 | 0.0 | 0.00 | 0.02 | 0.00 | 1013.0 | ||
| 20260906040058 | 0 | 0.0 | 0.0 | 0.00 | 0.02 | 0.00 | 1012.8 | ||
| 20260906034600 | 0 | 0.0 | 0.0 | 0.00 | 0.02 | 0.02 | 1013.1 | ||
| 20260906033100 | 0 | 0.0 | 0.0 | 0.00 | 0.02 | 0.02 | 1012.9 | ||
| 20260906031600 | 0 | 0.0 | 0.0 | 0.00 | 0.02 | 0.02 | 1013.3 | ||
| 20260906030104 | 0 | 0.0 | 0.0 | 0.00 | 0.02 | 0.02 | 1013.3 | ||
| 20260906024622 | 0 | 0.0 | 0.0 | 0.00 | 0.02 | 0.02 | 1013.4 | ||
| 20260906023107 | 0 | 0.0 | 0.0 | 0.00 | 0.02 | 0.02 | 1013.5 | ||
| 20260906021603 | 0 | 0.0 | 0.0 | 0.00 | 0.02 | 0.02 | 1013.5 | ||
| 20260906020101 | 0 | 0.0 | 0.0 | 0.00 | 0.02 | 0.02 | 1013.4 | ||
| 20260906014559 | 0 | 0.0 | 0.0 | 0.00 | 0.02 | 0.02 | 1013.2 | ||
| 20260906013104 | 75 | 0 | 0.0 | 0.0 | 0.00 | 0.02 | 0.02 | 60 | 1013.0 |
| 20260906011605 | 75 | 0 | 0.0 | 0.0 | 0.00 | 0.02 | 0.02 | 56 | 1013.3 |
| 20260906010131 | 76 | 0 | 0.0 | 0.0 | 0.00 | 0.02 | 0.02 | 58 | 1012.4 |
| 20260906004604 | 76 | 0 | 0.0 | 0.0 | 0.00 | 0.02 | 0.02 | 62 | 1012.0 |
| 20260906003105 | 76 | 0 | 0.0 | 0.0 | 0.00 | 0.02 | 0.02 | 65 | 1011.9 |
| 20260906001613 | 76 | 0 | 0.0 | 0.0 | 0.00 | 0.02 | 0.02 | 69 | 1011.7 |
| 20260906000104 | 77 | 0 | 0.0 | 0.0 | 0.00 | 0.02 | 0.02 | 70 | 1011.6 |
| 20260905234558 | 77 | 0 | 0.0 | 0.0 | 0.00 | 0.02 | 0.02 | 72 | 1011.0 |
| 20260905233057 | 77 | 0 | 0.0 | 0.0 | 0.01 | 0.02 | 0.02 | 75 | 1011.0 |
| 20260905231603 | 78 | 0 | 0.0 | 1.7 | 0.02 | 0.02 | 0.02 | 76 | 1011.2 |
| 20260905230113 | 78 | 105 | 0.0 | 0.9 | 0.02 | 0.02 | 0.02 | 76 | 1011.6 |
| 20260905224601 | 78 | 91 | 0.0 | 1.7 | 0.02 | 0.02 | 0.02 | 76 | 1012.0 |
| 20260905223101 | 83 | 0 | 0.0 | 0.9 | 0.01 | 0.01 | 0.01 | 71 | 1011.6 |
| 20260905221600 | 87 | 0 | 0.0 | 0.9 | 0.00 | 0.00 | 0.00 | 58 | 1012.3 |
| 20260905220104 | 88 | 0 | 0.0 | 1.7 | 0.00 | 0.00 | 0.00 | 56 | 1010.9 |
| 20260905214603 | 89 | 0 | 0.0 | 0.0 | 0.00 | 0.00 | 0.00 | 66 | 1010.7 |
| 20260905213105 | 88 | 0 | 0.0 | 0.0 | 0.00 | 0.00 | 0.00 | 66 | 1010.5 |
| 20260905211606 | 89 | 0 | 0.0 | 0.0 | 0.00 | 0.00 | 0.00 | 66 | 1010.2 |
| 20260905210104 | 89 | 0 | 0.0 | 0.0 | 0.00 | 0.00 | 0.00 | 63 | 1010.6 |
| 20260905204610 | 90 | 0 | 0.0 | 0.0 | 0.00 | 0.00 | 0.00 | 63 | 1011.0 |
| 20260905203104 | 89 | 0 | 0.0 | 0.0 | 0.00 | 0.00 | 0.00 | 61 | 1011.1 |
| 20260905201609 | 90 | 0 | 0.0 | 0.0 | 0.00 | 0.00 | 0.00 | 61 | 1011.1 |
| 20260905194602 | 90 | 0 | 0.0 | 0.0 | 0.00 | 0.00 | 0.00 | 62 | 1011.6 |
| 20260905193107 | 90 | 0 | 0.0 | 0.0 | 0.00 | 0.00 | 0.00 | 61 | 1011.7 |
| 20260905191601 | 90 | 0 | 0.0 | 0.0 | 0.00 | 0.00 | 0.00 | 58 | 1011.8 |
| 20260905190104 | 90 | 0 | 0.0 | 0.0 | 0.00 | 0.00 | 0.00 | 61 | 1012.2 |
| 20260905184613 | 91 | 0 | 0.0 | 0.0 | 0.00 | 0.00 | 0.00 | 59 | 1012.4 |
| 20260905183115 | 92 | 0 | 0.0 | 0.9 | 0.00 | 0.00 | 0.00 | 54 | 1012.4 |
| 20260905181603 | 92 | 0 | 0.0 | 0.0 | 0.00 | 0.00 | 0.00 | 59 | 1012.8 |
| 20260905180110 | 92 | 0 | 0.0 | 0.0 | 0.00 | 0.00 | 0.00 | 60 | 1012.9 |
| 20260905174605 | 93 | 0 | 0.0 | 0.0 | 0.00 | 0.00 | 0.00 | 60 | 1013.2 |
| 20260905173101 | 92 | 0 | 0.0 | 0.9 | 0.00 | 0.00 | 0.00 | 62 | 1013.4 |
| 20260905171605 | 90 | 0 | 0.0 | 0.9 | 0.00 | 0.00 | 0.00 | 64 | 1013.5 |
| 20260905170109 | 88 | 0 | 0.0 | 0.0 | 0.00 | 0.00 | 0.00 | 67 | 1013.7 |
| 20260905164606 | 87 | 0 | 0.0 | 0.9 | 0.00 | 0.00 | 0.00 | 69 | 1013.9 |
| 20260905163101 | 86 | 0 | 0.0 | 0.0 | 0.00 | 0.00 | 0.00 | 70 | 1013.9 |
| 20260905161605 | 86 | 0 | 0.0 | 0.9 | 0.00 | 0.00 | 0.00 | 70 | 1014.3 |
| 20260905160106 | 85 | 0 | 0.0 | 0.0 | 0.00 | 0.00 | 0.00 | 72 | 1014.5 |
| 20260905154605 | 84 | 0 | 0.0 | 0.0 | 0.00 | 0.00 | 0.00 | 74 | 1014.6 |
| 20260905153105 | 83 | 0 | 0.0 | 0.9 | 0.00 | 0.00 | 0.00 | 75 | 1014.6 |
| 20260905151602 | 82 | 0 | 0.0 | 0.0 | 0.00 | 0.00 | 0.00 | 75 | 1014.7 |
| 20260905144609 | 80 | 0 | 0.0 | 0.0 | 0.00 | 0.00 | 0.00 | 73 | 1014.7 |
| 20260905143104 | 80 | 0 | 0.0 | 0.0 | 0.00 | 0.00 | 0.00 | 73 | 1014.9 |
| 20260905141603 | 79 | 0 | 0.0 | 0.0 | 0.00 | 0.00 | 0.00 | 68 | 1014.8 |
| 20260905140127 | 78 | 0 | 0.0 | 0.0 | 0.00 | 0.00 | 0.00 | 65 | 1015.1 |
| 20260905134606 | 77 | 0 | 0.0 | 0.0 | 0.00 | 0.00 | 0.00 | 61 | 1014.9 |
| 20260905133103 | 76 | 0 | 0.0 | 0.0 | 0.00 | 0.00 | 0.00 | 42 | 1015.1 |
| 20260905131625 | 75 | 0 | 0.0 | 0.0 | 0.00 | 0.00 | 0.00 | 20 | 1015.2 |
| 20260905130105 | 74 | 0 | 0.0 | 0.0 | 0.00 | 0.00 | 0.00 | 15 | 1015.3 |
| 20260905124600 | 0 | 0.0 | 0.0 | 0.00 | 0.00 | 0.00 | 1015.3 | ||
| 20260905123107 | 0 | 0.0 | 0.0 | 0.00 | 0.00 | 0.00 | 1015.1 | ||
| 20260905121605 | 0 | 0.0 | 0.0 | 0.00 | 0.00 | 0.00 | 1015.0 | ||
| 20260905120105 | 0 | 0.0 | 0.0 | 0.00 | 0.00 | 0.00 | 1014.9 | ||
| 20260905114600 | 0 | 0.0 | 0.0 | 0.00 | 0.00 | 0.00 | 1014.6 |